Fairhaven, Maryland
Current Conditions -  °F | °C
As of 5:54 AM on Friday 28 Nov 2014 (Local Time) from KNAK Reporting Station
Clear Clear  
Wind Chill: 28°   Ceiling: Unl
Heat Index: 33°   Visibility: 10mi
Dew Point: 22°   Wind: 6mph
Humidity: 64%   Direction: 290°WNW
Pressure: 30.22"   Gusts: NA
Location:  38.7736°N, 76.5792°W
Report Text: KNAK 281054Z AUTO 29005KT 10SM CLR 01/M06 A3022 RMK AO2 SLP236 T00061056 $
Loading
Personal Weather Stations






























Interactive Weather Map New forecast layout! Learn more

10-Day Weather Forecast

Advertisements
Track Severe Weather on mobile